Time;durP1;ratioP1;P1;durP2;ratioP2;P2;SDS_P1;SDS_P2;PMS_P1;PMS_P2;Temp;Humidity;BMP_temperature;BMP_pressure;BME280_temperature;BME280_humidity;BME280_pressure;Samples;Min_cycle;Max_cycle;Signal;HPM_P1;HPM_P2
2021/08/04 00:00:36;;;;;;;2.75;2.05;;;;;;;14.24;99.08;100670.00;5001546;28;20049;-83
2021/08/04 00:03:03;;;;;;;3.13;2.33;;;;;;;14.27;99.19;100675.19;5007904;28;20056;-80
2021/08/04 00:05:30;;;;;;;3.50;2.05;;;;;;;14.25;99.09;100667.28;5012463;28;20133;-83
2021/08/04 00:07:56;;;;;;;2.75;2.15;;;;;;;14.31;98.26;100668.84;5028794;28;20040;-81
2021/08/04 00:10:23;;;;;;;3.65;2.35;;;;;;;14.42;97.59;100672.00;5011680;28;20037;-81
2021/08/04 00:12:50;;;;;;;3.22;2.00;;;;;;;14.44;97.36;100666.63;5011118;28;20096;-82
2021/08/04 00:15:18;;;;;;;6.13;2.20;;;;;;;14.38;98.15;100675.69;5009809;28;20060;-80
2021/08/04 00:17:45;;;;;;;2.42;1.90;;;;;;;14.39;98.33;100679.22;5012316;28;20067;-82
2021/08/04 00:20:13;;;;;;;3.13;2.10;;;;;;;14.34;99.04;100674.91;5019776;28;20040;-82
2021/08/04 00:22:44;;;;;;;3.55;2.00;;;;;;;14.32;99.29;100671.47;5011576;28;20042;-82
2021/08/04 00:25:11;;;;;;;3.22;2.22;;;;;;;14.39;98.66;100664.13;5011218;28;20042;-83
2021/08/04 00:27:38;;;;;;;3.58;2.10;;;;;;;14.47;98.14;100671.88;4993910;28;20038;-82
2021/08/04 00:30:06;;;;;;;3.15;2.10;;;;;;;14.53;97.82;100663.66;5014943;28;20060;-81
2021/08/04 00:32:33;;;;;;;3.47;2.20;;;;;;;14.46;98.97;100659.47;5006044;28;20049;-81
2021/08/04 00:34:59;;;;;;;2.25;1.92;;;;;;;14.47;99.57;100666.56;4996932;28;20037;-82
2021/08/04 00:37:26;;;;;;;3.13;2.20;;;;;;;14.52;99.02;100668.09;5013699;28;20041;-80
2021/08/04 00:39:53;;;;;;;3.15;1.95;;;;;;;14.47;99.16;100662.09;4994188;28;20100;-82
2021/08/04 00:42:20;;;;;;;2.55;1.80;;;;;;;14.42;100.00;100663.16;5012536;28;20064;-82
2021/08/04 00:44:47;;;;;;;2.80;2.17;;;;;;;14.51;98.70;100663.72;5008509;28;20045;-81
2021/08/04 00:47:14;;;;;;;3.55;2.08;;;;;;;14.49;98.83;100662.03;4999173;28;20617;-81
2021/08/04 00:49:41;;;;;;;3.42;1.90;;;;;;;14.55;97.06;100667.16;5012985;28;20441;-81
2021/08/04 00:52:09;;;;;;;2.20;1.83;;;;;;;14.55;97.88;100668.00;5014174;28;20042;-81
2021/08/04 00:54:36;;;;;;;3.58;2.45;;;;;;;14.45;98.25;100663.03;5013785;28;20048;-80
2021/08/04 00:57:03;;;;;;;3.35;2.40;;;;;;;14.60;97.50;100668.69;4994788;28;20427;-81
2021/08/04 00:59:30;;;;;;;2.47;1.70;;;;;;;14.59;98.68;100671.41;4997529;28;20517;-82
2021/08/04 01:02:06;;;;;;;2.83;1.50;;;;;;;14.54;99.53;100670.69;5005920;28;20458;-81
2021/08/04 01:04:43;;;;;;;3.08;2.08;;;;;;;14.53;99.61;100664.50;5028115;28;20465;-82
2021/08/04 01:07:26;;;;;;;3.58;2.22;;;;;;;14.48;100.00;100666.50;5014648;28;20042;-81
2021/08/04 01:10:01;;;;;;;2.70;2.13;;;;;;;14.52;100.00;100664.56;4994500;28;20056;-81
2021/08/04 01:12:34;;;;;;;4.13;2.10;;;;;;;14.52;100.00;100668.09;5020005;28;20033;-83
2021/08/04 01:15:03;;;;;;;3.28;2.63;;;;;;;14.48;100.00;100666.50;4994032;28;20037;-80
2021/08/04 01:17:29;;;;;;;2.80;2.17;;;;;;;14.48;100.00;100670.94;4996760;28;20058;-82
2021/08/04 01:20:09;;;;;;;3.60;2.00;;;;;;;14.54;100.00;100665.38;4993422;28;20041;-82
2021/08/04 01:22:56;;;;;;;3.35;2.20;;;;;;;14.53;100.00;100666.31;5013428;28;20057;-82
2021/08/04 01:25:31;;;;;;;3.88;2.08;;;;;;;14.55;98.72;100668.00;5028864;28;20033;-80
2021/08/04 01:28:23;;;;;;;3.55;2.42;;;;;;;14.55;98.08;100670.66;5011972;28;20076;-81
2021/08/04 01:30:52;;;;;;;3.83;2.20;;;;;;;14.54;98.30;100663.59;4993499;28;20495;-82
2021/08/04 01:33:19;;;;;;;3.88;2.30;;;;;;;14.54;97.45;100662.72;4994604;28;20137;-80
2021/08/04 01:35:47;;;;;;;3.67;2.78;;;;;;;14.54;99.12;100665.38;4992429;28;20045;-82
2021/08/04 01:38:16;;;;;;;4.25;2.35;;;;;;;14.57;98.85;100667.94;5013180;28;20042;-80
2021/08/04 01:40:44;;;;;;;3.15;2.63;;;;;;;14.60;99.04;100666.03;5011962;28;20107;-83
2021/08/04 01:43:12;;;;;;;3.05;2.25;;;;;;;14.59;99.27;100660.78;5012492;28;20411;-83
2021/08/04 01:45:40;;;;;;;4.40;2.53;;;;;;;14.57;100.00;100666.16;4995657;28;20068;-83
2021/08/04 01:48:07;;;;;;;3.10;2.42;;;;;;;14.49;100.00;100659.38;4994377;28;20095;-82
2021/08/04 01:50:36;;;;;;;3.20;2.20;;;;;;;14.47;100.00;100656.78;5007630;28;20053;-80
2021/08/04 01:53:05;;;;;;;4.60;2.00;;;;;;;14.45;100.00;100655.94;5013642;28;20053;-82
2021/08/04 01:55:32;;;;;;;4.30;3.05;;;;;;;14.41;100.00;100658.75;4995413;28;20077;-80
2021/08/04 01:57:59;;;;;;;3.45;2.22;;;;;;;14.44;100.00;100662.16;5007470;28;20042;-80
2021/08/04 02:00:25;;;;;;;3.00;2.30;;;;;;;14.51;100.00;100658.41;5011390;28;20067;-81
2021/08/04 02:02:52;;;;;;;3.63;2.25;;;;;;;14.49;100.00;100660.25;5018763;28;20030;-80
2021/08/04 02:05:19;;;;;;;2.95;2.20;;;;;;;14.45;100.00;100658.63;4996072;28;20068;-82
2021/08/04 02:08:11;;;;;;;3.63;2.70;;;;;;;14.44;100.00;100661.28;4994662;28;20785;-83
2021/08/04 02:10:49;;;;;;;3.40;2.30;;;;;;;14.28;100.00;100669.81;4994507;28;20042;-82
2021/08/04 02:13:32;;;;;;;3.05;2.40;;;;;;;14.35;100.00;100657.19;4997015;28;20052;-82
2021/08/04 02:16:30;;;;;;;3.58;2.50;;;;;;;14.30;100.00;100664.47;5011272;28;20045;-81
2021/08/04 02:19:20;;;;;;;3.15;2.20;;;;;;;14.25;100.00;100661.09;4994707;28;20502;-82
2021/08/04 02:21:51;;;;;;;5.38;2.78;;;;;;;14.27;100.00;100661.91;5011888;28;20041;-82
2021/08/04 02:24:18;;;;;;;4.00;2.47;;;;;;;14.29;100.00;100660.06;4992827;28;20046;-82
2021/08/04 02:26:49;;;;;;;3.95;2.65;;;;;;;14.35;100.00;100655.38;5009174;28;20042;-82
2021/08/04 02:29:16;;;;;;;4.72;2.80;;;;;;;14.35;100.00;100660.69;5007633;28;20505;-81
2021/08/04 02:31:43;;;;;;;3.80;2.20;;;;;;;14.33;100.00;100657.25;4992242;28;20263;-81
2021/08/04 02:34:09;;;;;;;3.20;2.35;;;;;;;14.23;100.00;100666.47;5008091;28;20052;-81
2021/08/04 02:36:36;;;;;;;3.75;2.60;;;;;;;14.14;100.00;100660.63;4982885;28;20096;-83
2021/08/04 02:39:03;;;;;;;3.20;2.67;;;;;;;14.15;100.00;100660.56;4990591;28;20396;-83
2021/08/04 02:41:32;;;;;;;2.50;2.08;;;;;;;14.14;100.00;100664.16;5010825;28;20133;-82
2021/08/04 02:44:00;;;;;;;3.25;2.40;;;;;;;14.18;100.00;100665.75;4994813;28;20110;-81
2021/08/04 02:46:29;;;;;;;3.78;2.60;;;;;;;14.18;100.00;100659.56;4996958;28;20057;-82
2021/08/04 02:48:57;;;;;;;5.60;2.50;;;;;;;14.18;100.00;100663.09;4995479;28;20052;-82
2021/08/04 02:51:24;;;;;;;3.95;2.95;;;;;;;14.16;100.00;100654.31;4997248;28;20045;-82
2021/08/04 02:53:55;;;;;;;4.78;2.78;;;;;;;14.18;100.00;100656.91;4996586;28;20056;-83
2021/08/04 02:56:23;;;;;;;6.00;3.05;;;;;;;14.19;100.00;100656.00;5011953;28;20041;-81
2021/08/04 02:58:50;;;;;;;3.75;2.78;;;;;;;14.14;100.00;100658.84;5017418;28;20107;-81
2021/08/04 03:01:18;;;;;;;4.13;2.90;;;;;;;14.16;100.00;100656.13;5009344;28;20042;-82
2021/08/04 03:03:45;;;;;;;3.95;2.95;;;;;;;14.13;100.00;100657.09;4994887;28;20457;-82
2021/08/04 03:06:12;;;;;;;4.70;3.28;;;;;;;14.13;100.00;100648.25;4997257;28;20060;-81
2021/08/04 03:08:39;;;;;;;3.95;2.65;;;;;;;14.11;100.00;100653.59;4996299;28;20061;-82
2021/08/04 03:11:07;;;;;;;4.30;2.60;;;;;;;14.05;100.00;100661.81;4992647;28;20077;-83
2021/08/04 03:13:34;;;;;;;2.33;2.13;;;;;;;14.00;100.00;100663.75;4996231;28;20065;-82
2021/08/04 03:16:01;;;;;;;3.28;2.60;;;;;;;14.03;100.00;100663.63;5008311;28;20042;-82
2021/08/04 03:18:28;;;;;;;2.80;2.20;;;;;;;14.06;100.00;100661.75;5026166;28;21370;-83
2021/08/04 03:20:55;;;;;;;3.78;2.30;;;;;;;14.14;100.00;100663.28;5009703;28;20431;-81
2021/08/04 03:23:21;;;;;;;4.90;3.63;;;;;;;14.14;100.00;100664.16;5010590;28;20049;-84
2021/08/04 03:25:48;;;;;;;4.15;2.90;;;;;;;14.12;100.00;100658.00;4995154;28;20038;-83
2021/08/04 03:28:15;;;;;;;3.78;2.90;;;;;;;14.11;100.00;100664.22;4995954;28;20037;-81
2021/08/04 03:30:41;;;;;;;3.33;2.50;;;;;;;14.07;100.00;100660.81;4994444;28;20509;-82
2021/08/04 03:33:08;;;;;;;3.55;2.70;;;;;;;14.08;100.00;100665.22;4994671;28;20529;-81
2021/08/04 03:35:35;;;;;;;2.95;2.65;;;;;;;14.09;100.00;100664.28;4992801;28;20037;-81
2021/08/04 03:38:01;;;;;;;4.05;3.15;;;;;;;14.13;100.00;100669.53;4997809;28;20380;-82
2021/08/04 03:40:28;;;;;;;3.17;2.70;;;;;;;14.16;100.00;100670.25;4996861;28;20388;-82
2021/08/04 03:42:55;;;;;;;4.47;2.90;;;;;;;14.10;100.00;100665.16;4998527;28;20056;-80
2021/08/04 03:45:21;;;;;;;3.53;3.13;;;;;;;14.02;100.00;100669.88;5006892;28;20075;-81
2021/08/04 03:47:48;;;;;;;5.10;3.08;;;;;;;13.95;100.00;100677.16;5014787;28;20099;-82
2021/08/04 03:50:15;;;;;;;3.63;2.90;;;;;;;14.05;100.00;100677.75;5014640;28;20037;-83
2021/08/04 03:52:42;;;;;;;5.22;3.00;;;;;;;14.07;100.00;100671.44;4999503;28;20057;-80
2021/08/04 03:55:10;;;;;;;4.18;2.80;;;;;;;14.06;100.00;100672.38;4997130;28;20064;-81
2021/08/04 03:57:37;;;;;;;3.17;2.80;;;;;;;14.03;100.00;100683.09;5000807;28;20589;-83
2021/08/04 04:00:05;;;;;;;4.47;3.10;;;;;;;13.97;100.00;100675.34;5014417;28;20180;-80
2021/08/04 04:02:31;;;;;;;4.60;3.30;;;;;;;13.96;100.00;100684.25;5014044;28;20462;-80
2021/08/04 04:04:58;;;;;;;4.43;3.22;;;;;;;13.95;100.00;100671.00;4997910;28;20041;-80
2021/08/04 04:07:25;;;;;;;3.95;2.97;;;;;;;13.96;100.00;100673.63;4999381;28;20060;-82
2021/08/04 04:09:52;;;;;;;4.13;3.05;;;;;;;14.00;100.00;100677.88;4995717;28;20095;-80
2021/08/04 04:12:18;;;;;;;4.53;3.22;;;;;;;14.07;100.00;100678.56;5015612;28;20064;-82
2021/08/04 04:14:45;;;;;;;3.72;2.90;;;;;;;14.09;100.00;100676.72;5008587;28;20454;-83
2021/08/04 04:17:13;;;;;;;5.20;3.13;;;;;;;14.17;100.00;100673.78;5009470;28;20045;-80
2021/08/04 04:19:39;;;;;;;3.83;3.05;;;;;;;14.09;100.00;100679.38;4995349;28;20593;-81
2021/08/04 04:22:06;;;;;;;4.47;2.92;;;;;;;14.17;100.00;100681.75;5011723;28;20045;-81
2021/08/04 04:24:33;;;;;;;4.53;3.28;;;;;;;14.16;100.00;100685.34;5007659;28;20038;-81
2021/08/04 04:27:00;;;;;;;4.28;3.33;;;;;;;14.19;100.00;100682.56;5003108;28;20549;-81
2021/08/04 04:29:26;;;;;;;4.53;3.20;;;;;;;14.17;100.00;100681.75;5006243;28;20082;-80
2021/08/04 04:31:53;;;;;;;4.05;3.10;;;;;;;14.16;100.00;100678.22;5012989;28;20045;-82
2021/08/04 04:34:20;;;;;;;5.13;3.00;;;;;;;14.21;100.00;100681.63;5004465;28;20487;-82
2021/08/04 04:36:46;;;;;;;4.05;2.78;;;;;;;14.17;100.00;100689.72;5031056;28;20099;-79
2021/08/04 04:39:13;;;;;;;4.47;3.33;;;;;;;14.18;100.00;100683.50;4997317;28;20041;-80
2021/08/04 04:41:40;;;;;;;6.22;3.33;;;;;;;14.19;100.00;100683.44;5012705;28;20049;-81
2021/08/04 04:44:06;;;;;;;3.55;2.85;;;;;;;14.24;100.00;100686.81;5012738;28;20107;-82
2021/08/04 04:46:33;;;;;;;5.00;3.53;;;;;;;14.34;100.00;100688.22;5011591;28;20046;-80
2021/08/04 04:49:00;;;;;;;3.97;3.00;;;;;;;14.31;100.00;100690.13;5015009;28;20060;-81
2021/08/04 04:51:26;;;;;;;4.13;3.22;;;;;;;14.29;100.00;100684.88;5016321;28;20042;-81
2021/08/04 04:53:53;;;;;;;4.68;3.35;;;;;;;14.38;100.00;100694.31;5007973;28;20084;-80
2021/08/04 04:56:20;;;;;;;4.82;3.15;;;;;;;14.44;100.00;100690.53;4997062;28;20049;-81
2021/08/04 04:58:46;;;;;;;4.68;3.15;;;;;;;14.45;100.00;100690.50;5012373;28;20075;-81
2021/08/04 05:01:13;;;;;;;3.58;2.80;;;;;;;14.53;100.00;100692.91;5010498;28;20716;-81
2021/08/04 05:03:40;;;;;;;5.15;3.65;;;;;;;14.60;100.00;100692.63;5013671;28;20525;-80
2021/08/04 05:06:06;;;;;;;3.97;3.22;;;;;;;14.66;100.00;100694.19;4995477;28;20060;-80
2021/08/04 05:08:33;;;;;;;4.80;3.65;;;;;;;14.72;100.00;100701.09;5013480;28;20041;-79
2021/08/04 05:11:00;;;;;;;4.22;2.95;;;;;;;14.72;100.00;100703.75;5011477;28;20048;-80
2021/08/04 05:13:26;;;;;;;4.20;3.28;;;;;;;14.76;100.00;100706.22;4995097;28;20046;-79
2021/08/04 05:15:53;;;;;;;6.03;4.43;;;;;;;14.86;100.00;100706.75;5004690;28;20454;-81
2021/08/04 05:18:20;;;;;;;3.75;3.15;;;;;;;14.87;100.00;100712.00;5010448;28;20131;-79
2021/08/04 05:20:46;;;;;;;4.82;3.25;;;;;;;14.93;100.00;100713.56;5008092;28;20033;-80
2021/08/04 05:23:13;;;;;;;3.70;3.17;;;;;;;14.95;100.00;100710.84;5012255;28;20108;-79
2021/08/04 05:25:41;;;;;;;4.57;3.20;;;;;;;15.03;100.00;100722.06;5009776;28;20123;-81
2021/08/04 05:28:07;;;;;;;4.20;3.50;;;;;;;15.10;100.00;100723.59;5016632;28;20103;-80
2021/08/04 05:30:34;;;;;;;5.03;4.10;;;;;;;15.16;100.00;100718.91;5015272;28;20025;-79
2021/08/04 05:33:01;;;;;;;4.07;3.65;;;;;;;15.20;100.00;100717.84;5011150;28;20107;-81
2021/08/04 05:35:27;;;;;;;4.25;3.00;;;;;;;15.32;100.00;100719.19;5001084;28;20042;-80
2021/08/04 05:37:54;;;;;;;5.43;3.35;;;;;;;15.32;100.00;100727.16;5013196;28;20046;-81
2021/08/04 05:40:21;;;;;;;4.95;3.25;;;;;;;15.35;100.00;100727.03;5011576;28;20707;-80
2021/08/04 05:42:47;;;;;;;4.18;2.85;;;;;;;15.39;100.00;100733.13;5021056;28;20042;-81
2021/08/04 05:45:14;;;;;;;4.53;3.17;;;;;;;15.47;100.00;100725.69;5010974;28;20388;-82
2021/08/04 05:47:41;;;;;;;4.85;3.13;;;;;;;15.46;100.00;100722.13;5021574;28;20052;-81
2021/08/04 05:50:08;;;;;;;5.63;3.33;;;;;;;15.51;100.00;100724.63;5009933;28;20426;-81
2021/08/04 05:52:35;;;;;;;5.30;3.30;;;;;;;15.58;100.00;100712.81;4994882;28;20091;-80
2021/08/04 05:55:02;;;;;;;5.72;3.40;;;;;;;15.66;100.00;100721.41;4993037;28;20080;-82
2021/08/04 05:57:29;;;;;;;4.32;3.15;;;;;;;15.70;100.00;100724.78;5012928;28;20052;-82
2021/08/04 05:59:56;;;;;;;4.13;3.05;;;;;;;15.73;100.00;100722.03;5010368;28;20079;-82
2021/08/04 06:02:22;;;;;;;4.53;2.85;;;;;;;15.77;100.00;100723.63;5006916;28;20034;-79
2021/08/04 06:04:49;;;;;;;4.32;2.72;;;;;;;15.77;100.00;100719.16;5006593;28;20487;-80
2021/08/04 06:07:16;;;;;;;4.57;2.90;;;;;;;15.77;100.00;100719.16;5017615;28;20083;-82
2021/08/04 06:09:42;;;;;;;3.67;2.92;;;;;;;15.86;100.00;100722.38;4996489;28;20547;-83
2021/08/04 06:12:09;;;;;;;4.60;2.72;;;;;;;15.95;100.00;100714.84;4996095;28;20056;-82
2021/08/04 06:14:36;;;;;;;3.30;2.78;;;;;;;16.08;100.00;100722.34;5029867;28;20039;-82
2021/08/04 06:17:03;;;;;;;5.10;2.78;;;;;;;16.16;100.00;100715.75;5010154;28;20042;-80
2021/08/04 06:19:30;;;;;;;3.80;2.90;;;;;;;16.35;100.00;100720.31;4994545;28;20048;-82
2021/08/04 06:21:58;;;;;;;4.22;2.88;;;;;;;16.59;95.50;100719.22;5000381;28;20071;-82
2021/08/04 06:24:24;;;;;;;3.60;2.60;;;;;;;16.70;90.47;100729.44;5012567;28;20522;-82
2021/08/04 06:26:52;;;;;;;3.38;2.58;;;;;;;16.85;91.46;100720.75;4997240;28;20403;-83
2021/08/04 06:29:18;;;;;;;3.60;2.70;;;;;;;17.36;84.02;100724.63;4994060;28;20105;-80
2021/08/04 06:31:45;;;;;;;4.15;2.63;;;;;;;17.83;81.09;100725.03;5012668;28;20042;-82
2021/08/04 06:34:12;;;;;;;3.53;2.45;;;;;;;18.73;79.59;100727.56;5001734;28;20137;-81
2021/08/04 06:36:39;;;;;;;2.97;1.98;;;;;;;19.18;75.07;100731.41;4992838;28;20046;-82
2021/08/04 06:39:05;;;;;;;3.67;2.25;;;;;;;19.35;71.29;100729.50;5010852;28;20053;-82
2021/08/04 06:41:32;;;;;;;7.43;2.85;;;;;;;19.53;73.32;100727.59;5036059;28;20041;-80
2021/08/04 06:43:59;;;;;;;3.13;2.28;;;;;;;19.55;74.17;100720.34;5022510;28;20393;-82
2021/08/04 06:46:32;;;;;;;2.88;1.85;;;;;;;19.66;72.29;100723.28;5011853;28;20071;-82
2021/08/04 06:48:59;;;;;;;3.17;1.80;;;;;;;19.71;68.54;100720.38;4995971;28;20046;-83
2021/08/04 06:51:25;;;;;;;2.17;1.80;;;;;;;19.82;70.60;100723.28;4997682;28;20046;-80
2021/08/04 06:53:52;;;;;;;3.75;2.20;;;;;;;20.09;72.16;100722.63;5013466;28;20037;-80
2021/08/04 06:56:19;;;;;;;3.35;2.00;;;;;;;20.55;69.02;100722.59;4998210;28;20038;-79
2021/08/04 06:58:45;;;;;;;3.10;2.22;;;;;;;20.86;68.15;100719.75;5013409;28;20416;-82
2021/08/04 07:01:12;;;;;;;2.00;1.80;;;;;;;21.30;68.95;100727.72;5028412;28;20033;-82
2021/08/04 07:03:39;;;;;;;2.80;1.70;;;;;;;21.32;61.13;100725.78;5014182;28;20049;-81
2021/08/04 07:06:08;;;;;;;2.33;1.83;;;;;;;21.61;61.17;100723.06;4994953;28;20037;-81
2021/08/04 07:08:36;;;;;;;2.60;1.80;;;;;;;21.94;62.24;100722.63;5013369;28;20447;-80
2021/08/04 07:11:03;;;;;;;3.80;1.83;;;;;;;21.73;60.60;100727.63;5000941;28;20041;-81
2021/08/04 07:13:30;;;;;;;2.72;2.00;;;;;;;21.64;61.29;100725.53;5034142;28;20045;-81
2021/08/04 07:15:56;;;;;;;3.03;1.95;;;;;;;21.59;61.70;100728.50;4992381;28;20053;-83
2021/08/04 07:18:23;;;;;;;2.58;1.77;;;;;;;21.45;61.74;100730.38;5022246;28;20107;-81
2021/08/04 07:20:50;;;;;;;3.63;1.83;;;;;;;21.36;62.67;100734.53;5013357;28;20050;-82
2021/08/04 07:23:17;;;;;;;2.28;1.80;;;;;;;21.39;63.30;100736.16;5005504;28;20037;-82
2021/08/04 07:25:44;;;;;;;2.65;1.92;;;;;;;21.34;63.56;100747.19;5014424;28;20037;-81
2021/08/04 07:28:11;;;;;;;2.20;2.00;;;;;;;20.67;62.90;100744.16;5004927;28;20068;-81
2021/08/04 07:30:38;;;;;;;2.33;1.90;;;;;;;20.87;64.42;100747.47;5001812;28;20041;-82
2021/08/04 07:33:05;;;;;;;2.10;1.80;;;;;;;21.01;64.27;100737.56;5017196;28;20045;-82
2021/08/04 07:35:32;;;;;;;2.38;1.60;;;;;;;21.12;63.91;100739.59;5016871;28;20057;-81
2021/08/04 07:37:58;;;;;;;2.05;1.70;;;;;;;21.26;63.77;100744.09;5032187;28;20176;-81
2021/08/04 07:40:25;;;;;;;3.47;2.20;;;;;;;21.29;64.05;100744.81;5023323;28;20076;-82
2021/08/04 07:42:52;;;;;;;3.05;2.00;;;;;;;21.36;63.76;100747.97;5014161;28;20037;-80
2021/08/04 07:45:19;;;;;;;2.03;1.83;;;;;;;21.42;64.28;100747.56;5012826;28;20049;-81
2021/08/04 07:47:46;;;;;;;3.45;1.98;;;;;;;21.38;63.18;100740.66;5027653;28;20055;-80
2021/08/04 07:50:15;;;;;;;2.80;2.08;;;;;;;21.36;64.64;100747.97;5010651;28;20053;-81
2021/08/04 07:52:42;;;;;;;2.33;1.90;;;;;;;21.40;64.82;100749.50;5011122;28;20506;-79
2021/08/04 07:55:13;;;;;;;2.55;2.08;;;;;;;21.50;63.65;100752.44;5003046;28;20415;-80
2021/08/04 07:57:40;;;;;;;4.45;2.20;;;;;;;20.58;64.40;100749.25;5016139;28;20045;-81
2021/08/04 08:00:07;;;;;;;2.72;2.13;;;;;;;21.04;65.03;100740.09;4998171;28;20037;-81
2021/08/04 08:02:34;;;;;;;2.55;1.88;;;;;;;21.27;62.02;100744.03;5001470;28;20581;-82
2021/08/04 08:05:01;;;;;;;2.60;2.05;;;;;;;21.29;62.84;100752.88;5003150;28;20040;-81
2021/08/04 08:07:29;;;;;;;1.77;1.60;;;;;;;21.40;60.38;100746.78;4996112;28;20505;-80
2021/08/04 08:09:56;;;;;;;1.95;1.75;;;;;;;21.04;62.39;100755.34;4998369;28;20038;-80
2021/08/04 08:12:23;;;;;;;2.10;1.80;;;;;;;20.73;61.83;100749.16;5015109;28;20056;-80
2021/08/04 08:14:49;;;;;;;2.90;1.70;;;;;;;20.38;61.85;100748.59;4998528;28;20053;-81
2021/08/04 08:17:16;;;;;;;2.67;1.80;;;;;;;20.73;64.26;100748.31;5033001;28;20129;-80
2021/08/04 08:19:43;;;;;;;2.45;2.13;;;;;;;20.74;61.85;100744.66;5011939;28;20052;-80
2021/08/04 08:22:09;;;;;;;1.65;1.55;;;;;;;21.01;61.12;100750.13;4998564;28;20048;-80
2021/08/04 08:24:36;;;;;;;3.33;1.70;;;;;;;21.22;60.48;100746.13;5030586;28;20041;-81
2021/08/04 08:27:03;;;;;;;3.33;1.98;;;;;;;20.97;59.53;100744.09;5031037;28;20041;-80
2021/08/04 08:29:29;;;;;;;3.50;2.13;;;;;;;20.92;59.93;100748.03;4996223;28;20041;-83
2021/08/04 08:31:56;;;;;;;2.15;1.50;;;;;;;20.95;59.22;100746.03;5017414;28;20527;-82
2021/08/04 08:34:23;;;;;;;4.05;1.95;;;;;;;20.93;60.26;100744.38;5018901;28;20048;-80
2021/08/04 08:36:49;;;;;;;3.08;1.98;;;;;;;20.89;60.04;100742.84;5019612;28;20478;-79
2021/08/04 08:39:16;;;;;;;4.20;2.10;;;;;;;21.15;61.41;100747.47;4996868;28;20600;-81
2021/08/04 08:41:46;;;;;;;1.70;1.60;;;;;;;21.00;58.63;100743.03;5014082;28;20033;-81
2021/08/04 08:44:13;;;;;;;2.55;1.50;;;;;;;21.20;59.59;100748.03;4998755;28;20140;-82
2021/08/04 08:46:40;;;;;;;3.10;1.70;;;;;;;21.14;60.12;100751.13;5009023;28;20047;-81
2021/08/04 08:49:07;;;;;;;3.67;1.70;;;;;;;21.26;60.50;100747.63;5007882;28;20048;-81
2021/08/04 08:51:34;;;;;;;1.83;1.60;;;;;;;21.15;60.00;100746.59;4994667;28;20041;-81
2021/08/04 08:54:01;;;;;;;2.83;1.60;;;;;;;20.94;59.26;100740.75;5016459;28;20052;-81
2021/08/04 08:56:39;;;;;;;3.15;1.75;;;;;;;21.04;61.28;100745.47;5008002;28;20042;-81
2021/08/04 08:59:07;;;;;;;1.98;1.50;;;;;;;20.96;60.57;100739.69;5013645;28;20083;-81
2021/08/04 09:01:37;;;;;;;2.20;1.73;;;;;;;20.58;62.84;100755.47;4996582;28;20041;-80
2021/08/04 09:04:09;;;;;;;2.00;1.67;;;;;;;20.75;63.68;100746.38;4998927;28;20327;-81
2021/08/04 09:06:49;;;;;;;1.67;1.55;;;;;;;20.92;58.75;100739.97;4996010;28;20086;-81
2021/08/04 09:09:22;;;;;;;3.08;1.50;;;;;;;21.05;56.97;100743.63;5013376;28;20064;-80
2021/08/04 09:11:54;;;;;;;1.88;1.70;;;;;;;21.33;56.14;100743.63;5000466;28;20057;-80
2021/08/04 09:14:28;;;;;;;6.70;1.67;;;;;;;21.54;57.23;100738.72;5001178;28;20041;-81
2021/08/04 09:17:08;;;;;;;2.22;1.95;;;;;;;21.69;53.01;100741.34;4997233;28;20108;-81
2021/08/04 09:19:42;;;;;;;3.35;1.60;;;;;;;21.97;56.96;100743.97;5017291;28;20065;-80
2021/08/04 09:22:35;;;;;;;1.58;1.27;;;;;;;22.35;53.46;100741.41;5024638;28;20037;-81
2021/08/04 09:25:07;;;;;;;1.90;1.55;;;;;;;22.13;49.55;100733.06;5010594;28;20042;-82
2021/08/04 09:27:51;;;;;;;2.23;1.70;;;;;;;22.72;49.92;100749.66;5010681;28;20046;-82
2021/08/04 09:30:22;;;;;;;1.90;1.30;;;;;;;22.32;48.48;100736.22;5024538;28;20824;-82
2021/08/04 09:32:49;;;;;;;3.10;1.60;;;;;;;22.63;50.37;100735.00;5015063;28;20041;-80
2021/08/04 09:35:18;;;;;;;2.00;1.60;;;;;;;22.65;51.59;100735.75;5017652;28;20115;-81
2021/08/04 09:37:46;;;;;;;1.88;1.60;;;;;;;22.88;50.37;100736.88;4997728;28;20042;-81
2021/08/04 09:40:16;;;;;;;1.95;1.58;;;;;;;23.29;49.85;100743.84;5012196;28;20068;-82
2021/08/04 09:42:48;;;;;;;2.15;1.80;;;;;;;22.97;49.34;100730.81;5016822;28;20045;-81
2021/08/04 09:45:18;;;;;;;2.25;1.55;;;;;;;22.94;51.61;100736.41;5023223;28;20107;-80
2021/08/04 09:48:02;;;;;;;2.60;1.80;;;;;;;23.14;51.90;100731.44;5012141;28;20069;-80
2021/08/04 09:50:44;;;;;;;1.90;1.70;;;;;;;23.66;52.45;100730.38;5036839;28;20360;-80
2021/08/04 09:53:17;;;;;;;2.13;1.67;;;;;;;23.97;50.18;100737.91;5008337;28;20061;-80
2021/08/04 09:56:12;;;;;;;3.38;2.00;;;;;;;23.99;48.00;100727.00;5014940;28;20037;-80
2021/08/04 09:58:47;;;;;;;2.33;1.70;;;;;;;23.98;48.72;100723.44;5020046;28;20050;-81
2021/08/04 10:01:16;;;;;;;2.00;1.80;;;;;;;24.28;48.96;100725.63;5021417;28;20033;-79
2021/08/04 10:04:02;;;;;;;3.05;1.67;;;;;;;24.60;47.52;100723.16;4994314;28;20427;-80
2021/08/04 10:06:43;;;;;;;2.03;1.70;;;;;;;24.85;47.97;100732.06;5012941;28;20641;-80
2021/08/04 10:09:15;;;;;;;2.05;1.50;;;;;;;24.46;46.13;100717.97;4988878;28;20848;-79
2021/08/04 10:11:47;;;;;;;1.58;1.48;;;;;;;24.42;44.13;100722.78;5021013;28;20042;-79
2021/08/04 10:14:19;;;;;;;1.92;1.73;;;;;;;24.53;45.25;100718.38;5024363;28;20055;-81
2021/08/04 10:16:47;;;;;;;2.03;1.45;;;;;;;24.06;41.78;100715.63;5007873;28;20132;-81
2021/08/04 10:19:16;;;;;;;2.13;1.80;;;;;;;24.37;44.91;100719.56;5006394;28;20066;-79
2021/08/04 10:21:46;;;;;;;2.95;1.50;;;;;;;24.66;45.14;100722.69;5000547;28;20045;-81
2021/08/04 10:24:13;;;;;;;6.25;2.20;;;;;;;24.27;47.14;100725.75;5025178;28;20056;-79
2021/08/04 10:26:40;;;;;;;3.08;1.30;;;;;;;24.40;45.50;100713.94;4993631;28;20056;-80
2021/08/04 10:29:09;;;;;;;2.38;1.50;;;;;;;23.65;44.96;100717.88;5008469;28;20129;-80
2021/08/04 10:31:37;;;;;;;6.20;1.92;;;;;;;24.18;45.35;100718.34;5011624;28;20056;-80
2021/08/04 10:34:04;;;;;;;1.75;1.20;;;;;;;24.60;44.78;100715.06;4990220;28;20514;-80
2021/08/04 10:36:34;;;;;;;1.55;1.33;;;;;;;24.71;44.56;100711.53;4995214;28;20049;-79
2021/08/04 10:39:10;;;;;;;1.92;1.65;;;;;;;24.16;43.59;100702.28;5027749;28;20056;-80
2021/08/04 10:41:38;;;;;;;2.13;1.80;;;;;;;24.64;43.05;100707.59;5018776;28;20042;-80
2021/08/04 10:44:06;;;;;;;2.35;2.00;;;;;;;24.56;40.52;100697.41;5009874;28;20099;-82
2021/08/04 10:46:37;;;;;;;1.90;1.65;;;;;;;25.03;42.84;100698.19;5017558;28;20645;-80
2021/08/04 10:49:04;;;;;;;2.60;1.40;;;;;;;25.23;42.30;100696.59;5017168;28;20045;-82
2021/08/04 10:51:54;;;;;;;5.53;1.73;;;;;;;25.13;41.29;100704.56;5006076;28;20046;-80
2021/08/04 10:54:22;;;;;;;3.47;1.70;;;;;;;25.38;41.17;100697.16;5034370;28;20055;-81
2021/08/04 10:56:49;;;;;;;2.10;1.55;;;;;;;25.49;41.28;100686.34;4979481;28;20136;-79
2021/08/04 10:59:29;;;;;;;1.90;1.60;;;;;;;25.63;41.25;100693.31;5030963;28;20025;-81
2021/08/04 11:02:02;;;;;;;2.78;1.80;;;;;;;25.55;41.13;100688.53;5009616;28;20522;-80
2021/08/04 11:04:29;;;;;;;2.53;1.70;;;;;;;25.03;41.86;100695.47;5047365;28;20052;-80
2021/08/04 11:07:08;;;;;;;2.22;1.95;;;;;;;24.97;41.70;100694.13;5008871;28;20050;-80
2021/08/04 11:09:39;;;;;;;3.55;1.80;;;;;;;24.65;41.85;100687.72;5010949;28;20045;-81
2021/08/04 11:12:11;;;;;;;3.13;2.00;;;;;;;24.78;41.21;100690.28;5002146;28;20037;-80
2021/08/04 11:14:47;;;;;;;2.45;2.00;;;;;;;25.02;41.20;100691.03;5005059;28;20529;-79
2021/08/04 11:17:25;;;;;;;2.75;1.92;;;;;;;25.37;42.23;100687.34;5026154;28;20065;-81
2021/08/04 11:20:07;;;;;;;2.22;2.03;;;;;;;25.31;41.08;100679.72;4999111;28;20125;-81
2021/08/04 11:22:34;;;;;;;1.70;1.60;;;;;;;25.57;41.03;100686.56;5029614;28;20487;-83
2021/08/04 11:25:08;;;;;;;2.33;1.83;;;;;;;25.60;41.35;100680.91;5030281;28;20052;-82
2021/08/04 11:27:56;;;;;;;7.43;2.60;;;;;;;25.76;40.18;100669.69;5010836;28;20041;-83
2021/08/04 11:30:27;;;;;;;4.60;2.20;;;;;;;25.65;40.32;100667.84;5005988;28;20056;-82